createdAt,value
2018-02-23T00:02:19.165Z,78.30
2018-02-23T00:04:48.197Z,78.20
2018-02-23T00:07:16.434Z,78.20
2018-02-23T00:09:45.476Z,78.30
2018-02-23T00:12:13.726Z,78.20
2018-02-23T00:14:41.991Z,78.40
2018-02-23T00:17:11.007Z,78.40
2018-02-23T00:19:39.276Z,78.40
2018-02-23T00:22:08.314Z,78.80
2018-02-23T00:24:36.589Z,78.70
2018-02-23T00:27:04.894Z,78.50
2018-02-23T00:29:33.270Z,78.40
2018-02-23T00:32:01.645Z,78.30
2018-02-23T00:34:29.913Z,78.40
2018-02-23T00:36:58.179Z,78.40
2018-02-23T00:39:26.436Z,78.30
2018-02-23T00:41:55.498Z,78.40
2018-02-23T00:44:24.376Z,78.40
2018-02-23T00:46:52.673Z,78.40
2018-02-23T00:49:20.938Z,78.30
2018-02-23T00:51:49.213Z,78.20
2018-02-23T00:54:17.470Z,78.20
2018-02-23T00:56:45.766Z,78.20
2018-02-23T00:59:14.030Z,78.20
2018-02-23T01:01:42.307Z,77.90
2018-02-23T01:04:10.568Z,78.00
2018-02-23T01:06:39.612Z,78.40
2018-02-23T01:09:07.862Z,78.40
2018-02-23T01:11:37.002Z,78.90
2018-02-23T01:14:05.262Z,79.00
2018-02-23T01:16:33.550Z,79.30
2018-02-23T01:19:01.807Z,79.20
2018-02-23T01:21:30.124Z,79.60
2018-02-23T01:23:58.375Z,79.30
2018-02-23T01:26:27.633Z,79.70
2018-02-23T01:28:55.890Z,79.70
2018-02-23T01:31:24.195Z,79.90
2018-02-23T01:33:52.442Z,79.70
2018-02-23T01:36:20.745Z,79.70
2018-02-23T01:38:49.006Z,79.60
2018-02-23T01:41:17.284Z,79.50
2018-02-23T01:43:45.588Z,79.80
2018-02-23T01:46:13.863Z,80.10
2018-02-23T01:48:42.119Z,80.40
2018-02-23T01:51:10.397Z,80.30
2018-02-23T01:53:38.713Z,80.30
2018-02-23T01:56:06.994Z,80.30
2018-02-23T01:58:35.258Z,80.20
2018-02-23T02:01:03.548Z,80.30
2018-02-23T02:03:31.826Z,80.90
2018-02-23T02:06:00.126Z,81.20
2018-02-23T02:08:28.382Z,81.10
2018-02-23T02:10:56.688Z,81.40
2018-02-23T02:13:25.089Z,81.50
2018-02-23T02:15:53.358Z,81.80
2018-02-23T02:18:21.627Z,82.70
2018-02-23T02:20:50.002Z,81.90
2018-02-23T02:23:18.290Z,81.80
2018-02-23T02:25:46.566Z,82.00
2018-02-23T02:28:14.865Z,82.10
2018-02-23T02:30:43.341Z,82.00
2018-02-23T02:33:11.588Z,81.90
2018-02-23T02:35:39.850Z,81.90
2018-02-23T02:38:08.876Z,81.80
2018-02-23T02:40:37.148Z,81.80
2018-02-23T02:43:05.638Z,81.80
2018-02-23T02:45:33.933Z,82.10
2018-02-23T02:48:02.210Z,82.10
2018-02-23T02:50:30.479Z,82.10
2018-02-23T02:52:58.738Z,81.70
2018-02-23T02:55:27.885Z,81.40
2018-02-23T02:57:56.164Z,81.40
2018-02-23T03:00:25.418Z,81.20
2018-02-23T03:02:54.435Z,81.70
2018-02-23T03:05:22.710Z,81.60
2018-02-23T03:07:50.996Z,81.60
2018-02-23T03:10:19.306Z,81.30
2018-02-23T03:12:47.572Z,81.30
2018-02-23T03:15:15.836Z,81.20
2018-02-23T03:17:44.095Z,81.50
2018-02-23T03:20:13.141Z,81.50
2018-02-23T03:22:41.433Z,81.50
2018-02-23T03:25:09.690Z,81.20
2018-02-23T03:27:37.984Z,81.30
2018-02-23T03:30:06.283Z,81.40
2018-02-23T03:32:34.560Z,81.70
2018-02-23T03:35:02.816Z,81.80
2018-02-23T03:37:31.631Z,81.90
2018-02-23T03:39:59.897Z,81.80
2018-02-23T03:42:28.170Z,81.90
2018-02-23T03:44:56.421Z,82.00
2018-02-23T03:47:25.580Z,82.30
2018-02-23T03:49:53.839Z,82.30
2018-02-23T03:52:22.141Z,82.50
2018-02-23T03:54:50.391Z,82.60
2018-02-23T03:57:18.665Z,82.40
2018-02-23T03:59:46.986Z,82.40
2018-02-23T04:02:15.258Z,82.30
2018-02-23T04:04:43.510Z,82.10
2018-02-23T04:07:11.790Z,82.00
2018-02-23T04:09:40.047Z,82.00
2018-02-23T04:12:08.322Z,82.10
2018-02-23T04:14:36.577Z,81.70
2018-02-23T04:17:04.949Z,81.80
2018-02-23T04:19:33.220Z,81.20
2018-02-23T04:22:01.660Z,81.50
2018-02-23T04:24:30.693Z,81.90
2018-02-23T04:26:58.954Z,81.90
2018-02-23T04:29:27.207Z,81.80
2018-02-23T04:34:31.942Z,81.40
2018-02-23T04:37:00.326Z,81.20
2018-02-23T04:39:28.627Z,80.70
2018-02-23T04:41:56.924Z,80.80
2018-02-23T04:44:25.958Z,81.60
2018-02-23T04:46:54.235Z,81.60
2018-02-23T04:49:22.482Z,81.70
2018-02-23T04:51:51.530Z,81.30
2018-02-23T04:54:19.786Z,81.30
2018-02-23T04:56:48.059Z,81.50
2018-02-23T04:59:16.324Z,81.70
2018-02-23T05:01:45.405Z,81.90
2018-02-23T05:04:13.646Z,81.90
2018-02-23T05:06:41.922Z,81.60
2018-02-23T05:09:10.260Z,81.50
2018-02-23T05:11:39.291Z,81.50
2018-02-23T05:14:07.544Z,81.50
2018-02-23T05:16:36.607Z,80.90
2018-02-23T05:19:04.842Z,80.90
2018-02-23T05:21:33.171Z,80.80
2018-02-23T05:24:01.568Z,80.80
2018-02-23T05:26:29.811Z,80.20
2018-02-23T05:28:58.066Z,80.00
2018-02-23T05:31:26.341Z,80.00
2018-02-23T05:33:55.411Z,79.90
2018-02-23T05:36:23.767Z,79.80
2018-02-23T05:38:52.025Z,79.80
2018-02-23T05:41:20.324Z,79.90
2018-02-23T05:43:48.577Z,79.80
2018-02-23T05:46:16.854Z,79.90
2018-02-23T05:48:45.101Z,79.10
2018-02-23T05:51:13.384Z,78.50
2018-02-23T05:53:42.406Z,78.10
2018-02-23T05:56:10.758Z,78.10
2018-02-23T05:58:39.017Z,78.00
2018-02-23T06:01:07.290Z,77.80
2018-02-23T06:03:35.602Z,77.60
2018-02-23T06:06:03.895Z,77.50
2018-02-23T06:08:32.919Z,77.80
2018-02-23T06:11:01.267Z,77.30
2018-02-23T06:13:29.498Z,77.30
2018-02-23T06:16:03.528Z,77.70
2018-02-23T06:18:37.549Z,78.20
2018-02-23T06:21:05.929Z,78.70
2018-02-23T06:23:34.217Z,78.30
2018-02-23T06:26:02.841Z,78.00
2018-02-23T06:28:31.921Z,78.10
2018-02-23T06:31:00.203Z,78.00
2018-02-23T06:33:28.457Z,78.00
2018-02-23T06:35:56.730Z,77.80
2018-02-23T06:38:25.015Z,78.10
2018-02-23T06:40:53.280Z,78.40
2018-02-23T06:43:21.579Z,78.60
2018-02-23T06:45:49.838Z,78.70
2018-02-23T06:48:18.137Z,78.30
2018-02-23T06:50:46.385Z,78.30
2018-02-23T06:53:14.666Z,77.70
2018-02-23T06:55:42.921Z,76.90
2018-02-23T06:58:11.995Z,76.10
2018-02-23T07:00:40.239Z,76.10
2018-02-23T07:03:08.548Z,76.00
2018-02-23T07:05:36.820Z,76.00
2018-02-23T07:08:05.094Z,75.70
2018-02-23T07:10:33.353Z,75.00
2018-02-23T07:13:01.829Z,74.40
2018-02-23T07:15:30.086Z,73.40
2018-02-23T07:17:59.122Z,68.80
2018-02-23T07:20:27.373Z,68.80
2018-02-23T07:22:56.414Z,64.50
2018-02-23T07:25:24.666Z,64.40
2018-02-23T07:27:53.797Z,60.00
2018-02-23T07:30:22.088Z,60.00
2018-02-23T07:32:50.353Z,57.80
2018-02-23T07:35:18.586Z,55.90
2018-02-23T07:37:46.847Z,54.60
2018-02-23T07:40:15.101Z,53.70
2018-02-23T07:42:43.374Z,51.50
2018-02-23T07:45:11.619Z,50.50
2018-02-23T07:47:41.417Z,48.50
2018-02-23T07:50:09.674Z,48.50
2018-02-23T07:52:37.979Z,47.90
2018-02-23T07:55:06.237Z,47.40
2018-02-23T07:57:34.493Z,46.60
2018-02-23T08:00:02.772Z,45.90
2018-02-23T08:02:31.023Z,44.90
2018-02-23T08:05:00.046Z,42.60
2018-02-23T08:07:28.345Z,42.60
2018-02-23T08:09:56.607Z,41.30
2018-02-23T08:12:24.856Z,40.90
2018-02-23T08:14:53.902Z,37.80
2018-02-23T08:17:22.196Z,37.80
2018-02-23T08:19:50.557Z,37.70
2018-02-23T08:22:18.810Z,37.30
2018-02-23T08:24:48.023Z,36.00
2018-02-23T08:27:16.290Z,36.00
2018-02-23T08:29:45.429Z,35.70
2018-02-23T08:32:13.678Z,35.70
2018-02-23T08:34:41.939Z,35.30
2018-02-23T08:37:10.202Z,34.80
2018-02-23T08:39:39.974Z,33.80
2018-02-23T08:42:08.239Z,33.80
2018-02-23T08:44:36.526Z,34.70
2018-02-23T08:47:04.851Z,35.60
2018-02-23T08:49:33.117Z,34.80
2018-02-23T08:52:01.432Z,34.80
2018-02-23T08:54:29.687Z,34.40
2018-02-23T08:56:57.948Z,34.30
2018-02-23T08:59:26.205Z,33.90
2018-02-23T09:01:54.482Z,33.80
2018-02-23T09:04:23.519Z,33.50
2018-02-23T09:06:51.786Z,33.50
2018-02-23T09:09:20.041Z,33.50
2018-02-23T09:11:49.087Z,32.40
2018-02-23T09:14:17.426Z,32.40
2018-02-23T09:16:45.966Z,32.20
2018-02-23T09:19:15.722Z,31.80
2018-02-23T09:21:44.874Z,32.50
2018-02-23T09:24:13.204Z,32.50
2018-02-23T09:26:41.818Z,32.10
2018-02-23T09:29:10.482Z,32.70
2018-02-23T09:31:38.775Z,33.70
2018-02-23T09:34:18.813Z,33.40
2018-02-23T09:36:47.871Z,35.30
2018-02-23T09:39:16.114Z,35.30
2018-02-23T09:41:44.378Z,36.30
2018-02-23T09:44:14.199Z,37.90
2018-02-23T09:46:43.339Z,38.20
2018-02-23T09:49:11.672Z,38.20
2018-02-23T09:51:41.710Z,38.30
2018-02-23T09:54:10.058Z,38.30
2018-02-23T09:56:38.408Z,38.40
2018-02-23T09:59:06.611Z,38.80
2018-02-23T10:01:35.098Z,38.60
2018-02-23T10:04:03.350Z,38.60
2018-02-23T10:06:31.624Z,38.70
2018-02-23T10:08:59.906Z,39.20
2018-02-23T10:11:28.699Z,39.80
2018-02-23T10:13:56.966Z,39.20
2018-02-23T10:16:25.214Z,39.20
2018-02-23T10:18:53.483Z,39.40
2018-02-23T10:21:21.870Z,39.20
2018-02-23T10:23:50.119Z,38.80
2018-02-23T10:26:18.390Z,38.70
2018-02-23T10:28:46.655Z,39.00
2018-02-23T10:31:14.903Z,38.60
2018-02-23T10:33:43.928Z,39.00
2018-02-23T10:36:12.183Z,39.00
2018-02-23T10:38:40.444Z,38.60
2018-02-23T10:41:08.692Z,38.40
2018-02-23T10:43:36.950Z,38.20
2018-02-23T10:46:05.211Z,38.20
2018-02-23T10:48:34.307Z,39.60
2018-02-23T10:51:02.558Z,39.40
2018-02-23T10:53:30.835Z,39.00
2018-02-23T10:55:59.134Z,38.50
2018-02-23T10:58:27.371Z,38.20
2018-02-23T11:00:55.617Z,38.40
2018-02-23T11:03:24.662Z,38.90
2018-02-23T11:05:53.083Z,38.90
2018-02-23T11:08:21.668Z,38.60
2018-02-23T11:10:50.770Z,38.20
2018-02-23T11:13:19.031Z,38.10
2018-02-23T11:15:47.283Z,38.00
2018-02-23T11:18:15.551Z,38.60
2018-02-23T11:20:43.859Z,37.90
2018-02-23T11:23:12.122Z,37.30
2018-02-23T11:25:40.426Z,37.20
2018-02-23T11:28:08.702Z,37.10
2018-02-23T11:30:37.009Z,37.70
2018-02-23T11:33:05.371Z,38.30
2018-02-23T11:35:33.813Z,39.10
2018-02-23T11:38:02.132Z,39.10
2018-02-23T11:40:30.387Z,38.00
2018-02-23T11:42:58.689Z,37.10
2018-02-23T11:45:26.942Z,37.50
2018-02-23T11:47:55.206Z,37.30
2018-02-23T11:50:24.234Z,37.90
2018-02-23T11:52:52.566Z,37.80
2018-02-23T11:55:20.794Z,37.60
2018-02-23T11:57:49.070Z,37.60
2018-02-23T12:00:17.322Z,37.80
2018-02-23T12:02:45.596Z,37.50
2018-02-23T12:05:13.854Z,37.10
2018-02-23T12:07:42.120Z,37.30
2018-02-23T12:10:10.391Z,37.50
2018-02-23T12:12:38.646Z,37.70
2018-02-23T12:15:06.928Z,37.80
2018-02-23T12:17:36.058Z,37.90
2018-02-23T12:20:04.346Z,37.90
2018-02-23T12:22:33.037Z,38.60
2018-02-23T12:25:01.347Z,38.70
2018-02-23T12:27:29.582Z,40.00
2018-02-23T12:29:57.851Z,39.60
2018-02-23T12:32:26.156Z,39.40
2018-02-23T12:34:54.422Z,38.50
2018-02-23T12:37:22.677Z,38.00
2018-02-23T12:39:51.717Z,38.10
2018-02-23T12:42:19.980Z,38.10
2018-02-23T12:44:48.294Z,37.90
2018-02-23T12:47:16.543Z,38.40
2018-02-23T12:49:44.811Z,38.20
2018-02-23T12:52:13.844Z,38.80
2018-02-23T12:54:42.115Z,38.70
2018-02-23T12:57:10.366Z,38.90
2018-02-23T12:59:39.397Z,39.40
2018-02-23T13:02:07.646Z,39.40
2018-02-23T13:04:36.867Z,39.60
2018-02-23T13:07:05.431Z,39.60
2018-02-23T13:09:33.900Z,39.60
2018-02-23T13:12:02.431Z,39.40
2018-02-23T13:17:29.610Z,37.80
2018-02-23T13:19:57.873Z,38.50
2018-02-23T13:22:26.923Z,38.80
2018-02-23T13:24:55.193Z,38.80
2018-02-23T13:27:23.448Z,38.60
2018-02-23T13:29:51.723Z,39.70
2018-02-23T13:32:19.987Z,39.70
2018-02-23T13:34:49.032Z,39.60
2018-02-23T13:37:17.283Z,39.60
2018-02-23T13:39:51.316Z,40.50
2018-02-23T13:42:25.628Z,39.30
2018-02-23T13:44:53.964Z,39.50
2018-02-23T13:47:22.207Z,39.60
2018-02-23T13:49:50.474Z,39.80
2018-02-23T13:52:18.723Z,39.90
2018-02-23T13:54:52.612Z,39.70
2018-02-23T13:57:20.868Z,39.60
2018-02-23T13:59:49.131Z,40.00
2018-02-23T14:02:17.382Z,40.40
2018-02-23T14:04:46.460Z,40.60
2018-02-23T14:07:20.569Z,40.50
2018-02-23T14:09:49.182Z,41.00
2018-02-23T14:12:18.367Z,41.20
2018-02-23T14:14:46.670Z,41.20
2018-02-23T14:17:14.927Z,40.50
2018-02-23T14:19:43.170Z,40.90
2018-02-23T14:22:11.423Z,40.50
2018-02-23T14:24:40.558Z,40.90
2018-02-23T14:27:09.578Z,40.80
2018-02-23T14:29:37.840Z,40.80
2018-02-23T14:32:06.098Z,40.90
2018-02-23T14:34:34.363Z,40.80
2018-02-23T14:37:03.382Z,40.80
2018-02-23T14:39:31.658Z,40.70
2018-02-23T14:41:59.911Z,40.70
2018-02-23T14:44:28.178Z,40.40
2018-02-23T14:46:56.425Z,40.70
2018-02-23T14:49:24.697Z,41.00
2018-02-23T14:51:52.950Z,41.50
2018-02-23T14:54:21.222Z,41.70
2018-02-23T14:56:50.259Z,41.90
2018-02-23T14:59:18.536Z,41.90
2018-02-23T15:01:46.795Z,42.40
2018-02-23T15:04:15.079Z,42.90
2018-02-23T15:06:44.118Z,42.80
2018-02-23T15:09:13.134Z,43.90
2018-02-23T15:11:41.450Z,43.90
2018-02-23T15:14:10.454Z,44.80
2018-02-23T15:16:38.718Z,44.80
2018-02-23T15:19:07.742Z,45.10
2018-02-23T15:21:36.010Z,45.10
2018-02-23T15:24:04.385Z,45.60
2018-02-23T15:26:32.665Z,44.70
2018-02-23T15:29:01.674Z,44.40
2018-02-23T15:31:41.930Z,44.50
2018-02-23T15:34:10.952Z,43.50
2018-02-23T15:36:39.450Z,43.40
2018-02-23T15:39:07.703Z,43.50
2018-02-23T15:41:36.147Z,43.90
2018-02-23T15:44:04.401Z,45.10
2018-02-23T15:46:32.669Z,45.70
2018-02-23T15:49:06.591Z,45.90
2018-02-23T15:51:38.778Z,46.40
2018-02-23T15:54:07.056Z,46.60
2018-02-23T15:56:35.361Z,46.60
2018-02-23T15:59:03.615Z,46.50
2018-02-23T16:01:32.262Z,46.60
2018-02-23T16:04:01.270Z,47.80
2018-02-23T16:06:29.541Z,47.80
2018-02-23T16:08:58.554Z,47.50
2018-02-23T16:11:26.815Z,47.50
2018-02-23T16:13:55.854Z,46.20
2018-02-23T16:16:24.103Z,46.20
2018-02-23T16:18:53.138Z,45.30
2018-02-23T16:21:21.401Z,45.30
2018-02-23T16:23:49.701Z,45.10
2018-02-23T16:26:17.970Z,45.20
2018-02-23T16:28:46.226Z,45.40
2018-02-23T16:31:15.259Z,45.40
2018-02-23T16:33:43.508Z,45.30
2018-02-23T16:36:12.542Z,45.80
2018-02-23T16:38:40.790Z,45.80
2018-02-23T16:41:09.082Z,46.10
2018-02-23T16:43:37.329Z,46.70
2018-02-23T16:46:06.645Z,46.70
2018-02-23T16:48:35.705Z,46.20
2018-02-23T16:51:04.001Z,46.20
2018-02-23T16:53:32.273Z,46.40
2018-02-23T16:56:00.558Z,46.80
2018-02-23T16:58:28.819Z,47.10
2018-02-23T17:00:57.079Z,47.30
2018-02-23T17:03:25.388Z,47.60
2018-02-23T17:05:53.666Z,47.40
2018-02-23T17:08:21.911Z,47.30
2018-02-23T17:10:50.188Z,47.60
2018-02-23T17:13:18.490Z,47.50
2018-02-23T17:15:46.750Z,47.70
2018-02-23T17:18:15.050Z,48.20
2018-02-23T17:20:43.310Z,48.60
2018-02-23T17:23:11.553Z,49.20
2018-02-23T17:25:39.827Z,50.00
2018-02-23T17:28:08.115Z,50.50
2018-02-23T17:30:36.402Z,51.10
2018-02-23T17:33:04.672Z,51.90
2018-02-23T17:35:32.966Z,51.70
2018-02-23T17:38:01.213Z,51.70
2018-02-23T17:40:29.473Z,51.70
2018-02-23T17:42:58.325Z,51.50
2018-02-23T17:45:26.658Z,51.60
2018-02-23T17:47:54.923Z,51.80
2018-02-23T17:50:23.221Z,51.90
2018-02-23T17:52:51.467Z,51.90
2018-02-23T17:55:20.515Z,52.10
2018-02-23T17:57:48.791Z,52.10
2018-02-23T18:00:17.064Z,51.90
2018-02-23T18:02:45.355Z,52.20
2018-02-23T18:05:13.642Z,52.30
2018-02-23T18:07:42.119Z,52.50
2018-02-23T18:10:10.346Z,52.60
2018-02-23T18:12:39.385Z,52.90
2018-02-23T18:15:07.646Z,52.90
2018-02-23T18:17:35.926Z,52.90
2018-02-23T18:20:04.205Z,53.20
2018-02-23T18:22:33.003Z,53.30
2018-02-23T18:25:02.418Z,53.60
2018-02-23T18:27:31.470Z,53.70
2018-02-23T18:29:59.811Z,53.70
2018-02-23T18:32:28.078Z,54.00
2018-02-23T18:34:56.411Z,54.10
2018-02-23T18:37:24.656Z,54.10
2018-02-23T18:39:52.925Z,54.20
2018-02-23T18:42:21.247Z,53.90
2018-02-23T18:44:49.607Z,53.80
2018-02-23T18:47:17.849Z,53.80
2018-02-23T18:49:46.886Z,54.10
2018-02-23T18:52:15.155Z,54.10
2018-02-23T18:54:43.423Z,54.20
2018-02-23T18:57:11.699Z,54.20
2018-02-23T18:59:39.949Z,54.40
2018-02-23T19:02:08.213Z,54.70
2018-02-23T19:04:36.478Z,54.80
2018-02-23T19:07:04.741Z,54.80
2018-02-23T19:09:33.053Z,54.90
2018-02-23T19:12:01.291Z,55.30
2018-02-23T19:14:29.559Z,55.50
2018-02-23T19:16:58.578Z,55.70
2018-02-23T19:19:26.839Z,55.70
2018-02-23T19:21:55.086Z,55.50
2018-02-23T19:24:23.353Z,55.40
2018-02-23T19:26:51.729Z,55.40
2018-02-23T19:29:20.023Z,55.30
2018-02-23T19:31:48.271Z,55.10
2018-02-23T19:34:16.558Z,55.20
2018-02-23T19:36:44.826Z,55.40
2018-02-23T19:39:13.114Z,55.60
2018-02-23T19:41:41.370Z,55.70
2018-02-23T19:44:10.438Z,55.90
2018-02-23T19:46:38.718Z,56.00
2018-02-23T19:49:06.965Z,56.30
2018-02-23T19:51:35.246Z,56.50
2018-02-23T19:54:03.511Z,56.60
2018-02-23T19:56:31.788Z,57.10
2018-02-23T19:59:00.083Z,57.50
2018-02-23T20:01:28.459Z,57.80
2018-02-23T20:03:56.749Z,58.30
2018-02-23T20:06:25.100Z,58.60
2018-02-23T20:08:54.119Z,59.10
2018-02-23T20:11:22.381Z,59.10
2018-02-23T20:13:50.639Z,59.20
2018-02-23T20:16:19.695Z,59.60
2018-02-23T20:18:47.983Z,59.60
2018-02-23T20:21:16.258Z,59.80
2018-02-23T20:23:44.564Z,60.20
2018-02-23T20:26:12.831Z,60.80
2018-02-23T20:28:41.095Z,61.20
2018-02-23T20:31:09.478Z,61.40
2018-02-23T20:33:37.761Z,61.40
2018-02-23T20:36:06.458Z,61.70
2018-02-23T20:38:34.734Z,61.90
2018-02-23T20:41:03.125Z,61.90
2018-02-23T20:43:31.434Z,62.20
2018-02-23T20:45:59.787Z,62.50
2018-02-23T20:48:28.038Z,62.90
2018-02-23T20:50:56.337Z,63.00
2018-02-23T20:53:24.582Z,63.30
2018-02-23T20:55:52.874Z,63.30
2018-02-23T20:58:21.136Z,63.30
2018-02-23T21:00:50.179Z,63.20
2018-02-23T21:03:18.438Z,63.20
2018-02-23T21:05:46.767Z,63.40
2018-02-23T21:08:15.054Z,63.40
2018-02-23T21:10:43.314Z,63.40
2018-02-23T21:13:11.602Z,63.60
2018-02-23T21:15:39.862Z,63.80
2018-02-23T21:18:08.263Z,64.20
2018-02-23T21:20:36.650Z,64.60
2018-02-23T21:23:05.046Z,64.70
2018-02-23T21:25:33.327Z,64.80
2018-02-23T21:28:01.598Z,64.80
2018-02-23T21:30:29.867Z,65.10
2018-02-23T21:32:58.134Z,65.50
2018-02-23T21:35:26.400Z,65.80
2018-02-23T21:37:54.685Z,66.30
2018-02-23T21:40:22.942Z,66.50
2018-02-23T21:42:51.267Z,66.50
2018-02-23T21:45:19.538Z,66.50
2018-02-23T21:47:47.821Z,66.60
2018-02-23T21:50:16.092Z,66.50
2018-02-23T21:52:44.379Z,66.20
2018-02-23T21:55:12.647Z,66.80
2018-02-23T21:57:40.930Z,66.10
2018-02-23T22:00:09.262Z,66.20
2018-02-23T22:02:37.547Z,66.10
2018-02-23T22:05:05.805Z,65.90
2018-02-23T22:07:34.103Z,66.10
2018-02-23T22:10:02.343Z,66.40
2018-02-23T22:12:30.614Z,66.70
2018-02-23T22:14:58.874Z,66.60
2018-02-23T22:17:27.927Z,66.60
2018-02-23T22:19:56.206Z,66.60
2018-02-23T22:22:24.485Z,66.70
2018-02-23T22:24:52.741Z,66.80
2018-02-23T22:27:21.021Z,67.10
2018-02-23T22:29:49.285Z,67.10
2018-02-23T22:32:18.467Z,67.50
2018-02-23T22:34:46.745Z,67.50
2018-02-23T22:37:15.039Z,67.10
2018-02-23T22:39:44.094Z,67.00
2018-02-23T22:42:12.378Z,66.90
2018-02-23T22:44:40.647Z,66.90
2018-02-23T22:47:08.929Z,66.70
2018-02-23T22:49:37.187Z,66.60
2018-02-23T22:52:05.491Z,66.60
2018-02-23T22:54:33.865Z,66.70
2018-02-23T22:57:02.134Z,66.80
2018-02-23T22:59:30.414Z,66.60
2018-02-23T23:01:58.694Z,66.80
2018-02-23T23:04:26.953Z,66.90
2018-02-23T23:06:56.023Z,66.80
2018-02-23T23:09:24.389Z,66.80
2018-02-23T23:11:52.662Z,66.90
2018-02-23T23:14:20.935Z,67.40
2018-02-23T23:16:49.224Z,67.30
2018-02-23T23:19:17.476Z,67.50
2018-02-23T23:21:45.759Z,67.80
2018-02-23T23:24:14.012Z,68.00
2018-02-23T23:26:43.047Z,68.00
2018-02-23T23:29:11.463Z,67.90
2018-02-23T23:31:40.540Z,68.20
2018-02-23T23:34:08.823Z,68.20
2018-02-23T23:36:37.099Z,68.40
2018-02-23T23:39:05.369Z,68.40
2018-02-23T23:41:33.665Z,68.80
2018-02-23T23:44:01.955Z,68.60
2018-02-23T23:46:30.307Z,68.50
2018-02-23T23:48:58.568Z,68.00
2018-02-23T23:51:26.858Z,67.80
2018-02-23T23:53:55.127Z,68.00
2018-02-23T23:56:24.165Z,67.60
2018-02-23T23:58:52.491Z,67.60
